createdAt,value
2022-10-21T00:01:42.838Z,95871.66
2022-10-21T00:04:09.869Z,95880.28
2022-10-21T00:06:36.928Z,95880.72
2022-10-21T00:09:03.906Z,95884.63
2022-10-21T00:11:30.811Z,95876.25
2022-10-21T00:13:57.695Z,95874.63
2022-10-21T00:16:24.409Z,95872.78
2022-10-21T00:18:51.211Z,95875.03
2022-10-21T00:21:19.853Z,95872.59
2022-10-21T00:23:47.343Z,95872.00
2022-10-21T00:26:14.862Z,95879.38
2022-10-21T00:28:42.124Z,95876.13
2022-10-21T00:31:09.943Z,95876.31
2022-10-21T00:33:37.154Z,95871.84
2022-10-21T00:36:04.645Z,95870.44
2022-10-21T00:38:31.945Z,95872.50
2022-10-21T00:40:59.335Z,95877.22
2022-10-21T00:43:26.841Z,95868.03
2022-10-21T00:45:56.769Z,95867.84
2022-10-21T00:48:35.976Z,95871.97
2022-10-21T00:51:06.055Z,95862.16
2022-10-21T00:53:34.220Z,95863.38
2022-10-21T00:56:04.016Z,95851.13
2022-10-21T00:58:33.592Z,95856.47
2022-10-21T01:01:01.756Z,95852.59
2022-10-21T01:03:29.753Z,95853.41
2022-10-21T01:05:57.705Z,95859.13
2022-10-21T01:08:24.814Z,95849.94
2022-10-21T01:10:52.158Z,95851.56
2022-10-21T01:13:37.412Z,95857.53
2022-10-21T01:16:13.568Z,95856.75
2022-10-21T01:19:03.811Z,95857.97
2022-10-21T01:21:30.691Z,95863.28
2022-10-21T01:23:57.393Z,95865.13
2022-10-21T01:26:27.441Z,95864.91
2022-10-21T01:29:03.548Z,95868.59
2022-10-21T01:31:35.416Z,95870.91
2022-10-21T01:34:05.219Z,95872.91
2022-10-21T01:36:50.642Z,95873.94
2022-10-21T01:39:28.415Z,95866.78
2022-10-21T01:42:00.726Z,95876.59
2022-10-21T01:44:34.711Z,95873.31
2022-10-21T01:47:13.900Z,95877.00
2022-10-21T01:49:44.247Z,95876.44
2022-10-21T01:52:11.931Z,95870.91
2022-10-21T01:54:41.179Z,95885.81
2022-10-21T01:57:08.579Z,95886.84
2022-10-21T01:59:35.891Z,95888.09
2022-10-21T02:02:04.733Z,95888.50
2022-10-21T02:04:33.303Z,95881.13
2022-10-21T02:07:00.181Z,95879.94
2022-10-21T02:09:27.136Z,95881.97
2022-10-21T02:11:56.689Z,95882.59
2022-10-21T02:14:25.611Z,95877.47
2022-10-21T02:16:54.892Z,95878.72
2022-10-21T02:19:21.878Z,95881.16
2022-10-21T02:21:50.089Z,95889.34
2022-10-21T02:24:21.952Z,95889.53
2022-10-21T02:26:49.172Z,95885.03
2022-10-21T02:29:21.668Z,95894.28
2022-10-21T02:32:08.855Z,95888.34
2022-10-21T02:34:54.591Z,95894.88
2022-10-21T02:37:32.095Z,95892.84
2022-10-21T02:40:09.523Z,95887.72
2022-10-21T02:42:39.896Z,95886.53
2022-10-21T02:45:07.322Z,95895.28
2022-10-21T02:47:36.398Z,95893.47
2022-10-21T02:50:03.818Z,95897.13
2022-10-21T02:52:30.488Z,95895.28
2022-10-21T02:54:57.503Z,95893.69
2022-10-21T02:57:24.269Z,95894.47
2022-10-21T02:59:51.004Z,95900.63
2022-10-21T03:02:18.216Z,95890.81
2022-10-21T03:04:44.918Z,95898.38
2022-10-21T03:07:11.735Z,95905.09
2022-10-21T03:09:38.443Z,95908.38
2022-10-21T03:12:05.387Z,95906.13
2022-10-21T03:14:32.337Z,95907.78
2022-10-21T03:16:59.227Z,95901.84
2022-10-21T03:19:26.243Z,95902.06
2022-10-21T03:21:52.967Z,95903.25
2022-10-21T03:24:28.605Z,95894.47
2022-10-21T03:26:56.470Z,95898.56
2022-10-21T03:29:23.479Z,95902.66
2022-10-21T03:31:50.214Z,95895.50
2022-10-21T03:34:17.240Z,95899.81
2022-10-21T03:36:44.003Z,95907.53
2022-10-21T03:39:11.703Z,95912.03
2022-10-21T03:41:38.682Z,95901.81
2022-10-21T03:44:05.404Z,95911.41
2022-10-21T03:46:32.240Z,95912.44
2022-10-21T03:49:02.839Z,95907.75
2022-10-21T03:51:32.365Z,95918.38
2022-10-21T03:53:59.169Z,95909.59
2022-10-21T03:56:26.547Z,95911.63
2022-10-21T03:58:58.411Z,95917.13
2022-10-21T04:01:26.057Z,95918.16
2022-10-21T04:03:53.503Z,95915.50
2022-10-21T04:06:20.463Z,95919.16
2022-10-21T04:08:47.515Z,95921.81
2022-10-21T04:11:14.334Z,95918.94
2022-10-21T04:13:41.292Z,95922.63
2022-10-21T04:16:10.594Z,95924.88
2022-10-21T04:18:37.483Z,95920.78
2022-10-21T04:21:04.508Z,95916.88
2022-10-21T04:23:31.298Z,95911.38
2022-10-21T04:25:58.310Z,95917.06
2022-10-21T04:28:25.489Z,95914.22
2022-10-21T04:30:52.520Z,95911.34
2022-10-21T04:33:19.294Z,95920.75
2022-10-21T04:35:46.890Z,95917.03
2022-10-21T04:38:13.852Z,95921.13
2022-10-21T04:40:40.889Z,95918.50
2022-10-21T04:43:07.680Z,95915.84
2022-10-21T04:45:34.583Z,95922.16
2022-10-21T04:48:01.355Z,95913.75
2022-10-21T04:50:28.559Z,95911.34
2022-10-21T04:53:00.848Z,95914.19
2022-10-21T04:55:28.851Z,95922.53
2022-10-21T04:57:55.589Z,95918.06
2022-10-21T05:00:22.671Z,95912.13
2022-10-21T05:02:49.437Z,95912.56
2022-10-21T05:05:16.456Z,95911.75
2022-10-21T05:07:43.483Z,95916.84
2022-10-21T05:10:10.400Z,95909.91
2022-10-21T05:12:37.382Z,95921.34
2022-10-21T05:15:04.395Z,95912.56
2022-10-21T05:17:31.439Z,95923.59
2022-10-21T05:19:58.283Z,95921.38
2022-10-21T05:22:25.252Z,95922.38
2022-10-21T05:24:52.052Z,95924.84
2022-10-21T05:27:18.976Z,95926.47
2022-10-21T05:29:45.843Z,95919.34
2022-10-21T05:32:12.619Z,95920.78
2022-10-21T05:34:39.578Z,95928.13
2022-10-21T05:37:07.270Z,95923.44
2022-10-21T05:39:34.022Z,95928.16
2022-10-21T05:42:02.330Z,95932.03
2022-10-21T05:44:29.353Z,95936.13
2022-10-21T05:46:56.364Z,95935.53
2022-10-21T05:49:23.200Z,95938.56
2022-10-21T05:51:50.011Z,95941.66
2022-10-21T05:54:17.208Z,95937.97
2022-10-21T05:56:44.037Z,95938.59
2022-10-21T05:59:11.380Z,95946.78
2022-10-21T06:01:39.547Z,95957.22
2022-10-21T06:04:06.613Z,95953.13
2022-10-21T06:06:33.480Z,95954.31
2022-10-21T06:09:01.051Z,95967.41
2022-10-21T06:11:27.883Z,95963.13
2022-10-21T06:13:54.616Z,95970.69
2022-10-21T06:16:21.440Z,95972.34
2022-10-21T06:18:48.566Z,95974.38
2022-10-21T06:21:15.551Z,95979.28
2022-10-21T06:23:42.360Z,95977.69
2022-10-21T06:26:12.164Z,95981.53
2022-10-21T06:28:40.135Z,95971.13
2022-10-21T06:31:07.669Z,95977.25
2022-10-21T06:33:34.686Z,95981.56
2022-10-21T06:36:01.621Z,95980.16
2022-10-21T06:38:28.398Z,95984.81
2022-10-21T06:41:02.588Z,95983.00
2022-10-21T06:43:29.671Z,95987.69
2022-10-21T06:46:03.608Z,95984.41
2022-10-21T06:48:30.974Z,95982.78
2022-10-21T06:50:58.698Z,95988.28
2022-10-21T06:53:27.283Z,95989.31
2022-10-21T06:56:20.432Z,95991.16
2022-10-21T06:58:49.256Z,95987.28
2022-10-21T07:01:34.273Z,95995.44
2022-10-21T07:04:08.736Z,95989.28
2022-10-21T07:06:36.177Z,95988.06
2022-10-21T07:09:04.072Z,95989.25
2022-10-21T07:11:31.184Z,95989.25
2022-10-21T07:13:59.957Z,95992.13
2022-10-21T07:16:28.155Z,95985.75
2022-10-21T07:18:55.325Z,95992.66
2022-10-21T07:21:23.843Z,95990.19
2022-10-21T07:23:56.492Z,95986.91
2022-10-21T07:26:26.941Z,95988.31
2022-10-21T07:28:54.878Z,95992.19
2022-10-21T07:31:22.017Z,95989.25
2022-10-21T07:33:49.198Z,95986.78
2022-10-21T07:36:24.033Z,95984.91
2022-10-21T07:38:51.951Z,95983.25
2022-10-21T07:41:20.826Z,95985.63
2022-10-21T07:43:48.250Z,95974.97
2022-10-21T07:46:15.352Z,95984.31
2022-10-21T07:48:42.430Z,95980.00
2022-10-21T07:51:11.112Z,95977.25
2022-10-21T07:53:38.663Z,95975.81
2022-10-21T07:56:06.934Z,95968.00
2022-10-21T07:58:33.945Z,95971.19
2022-10-21T08:01:01.867Z,95970.09
2022-10-21T08:03:28.711Z,95969.25
2022-10-21T08:05:56.024Z,95965.72
2022-10-21T08:08:26.042Z,95969.97
2022-10-21T08:10:54.899Z,95967.00
2022-10-21T08:13:21.789Z,95963.88
2022-10-21T08:15:51.851Z,95961.53
2022-10-21T08:18:19.292Z,95956.59
2022-10-21T08:20:47.556Z,95954.22
2022-10-21T08:23:15.604Z,95956.25
2022-10-21T08:25:47.430Z,95959.28
2022-10-21T08:28:14.607Z,95956.53
2022-10-21T08:30:41.892Z,95950.97
2022-10-21T08:33:08.904Z,95947.25
2022-10-21T08:35:35.613Z,95952.31
2022-10-21T08:38:02.691Z,95947.72
2022-10-21T08:40:31.783Z,95950.53
2022-10-21T08:43:06.460Z,95959.50
2022-10-21T08:45:41.638Z,95943.03
2022-10-21T08:48:10.841Z,95938.78
2022-10-21T08:50:40.386Z,95939.13
2022-10-21T08:53:27.495Z,95940.94
2022-10-21T08:55:58.636Z,95944.31
2022-10-21T08:58:25.351Z,95939.34
2022-10-21T09:00:58.956Z,95933.06
2022-10-21T09:03:28.533Z,95935.28
2022-10-21T09:06:03.819Z,95932.31
2022-10-21T09:08:44.037Z,95928.34
2022-10-21T09:11:26.948Z,95916.63
2022-10-21T09:13:59.754Z,95915.38
2022-10-21T09:16:32.643Z,95906.22
2022-10-21T09:19:05.997Z,95905.75
2022-10-21T09:21:48.157Z,95906.50
2022-10-21T09:24:33.818Z,95901.81
2022-10-21T09:27:02.101Z,95901.38
2022-10-21T09:29:37.067Z,95902.09
2022-10-21T09:32:13.069Z,95900.09
2022-10-21T09:34:49.047Z,95884.88
2022-10-21T09:37:23.932Z,95889.06
2022-10-21T09:40:03.333Z,95888.47
2022-10-21T09:42:46.465Z,95882.75
2022-10-21T09:45:21.413Z,95896.84
2022-10-21T09:47:52.346Z,95891.25
2022-10-21T09:50:19.373Z,95890.53
2022-10-21T09:52:53.466Z,95888.78
2022-10-21T09:55:20.567Z,95894.34
2022-10-21T09:57:47.273Z,95903.41
2022-10-21T10:00:14.426Z,95899.56
2022-10-21T10:02:44.285Z,95897.91
2022-10-21T10:05:29.829Z,95892.66
2022-10-21T10:07:56.593Z,95886.09
2022-10-21T10:10:32.236Z,95884.63
2022-10-21T10:13:00.022Z,95866.81
2022-10-21T10:15:35.192Z,95868.28
2022-10-21T10:18:02.172Z,95861.75
2022-10-21T10:20:29.147Z,95859.72
2022-10-21T10:22:59.186Z,95850.13
2022-10-21T10:25:30.086Z,95857.13
2022-10-21T10:27:56.957Z,95853.63
2022-10-21T10:30:24.984Z,95848.28
2022-10-21T10:32:52.634Z,95859.47
2022-10-21T10:35:33.414Z,95854.78
2022-10-21T10:38:02.740Z,95850.81
2022-10-21T10:40:39.620Z,95842.84
2022-10-21T10:43:08.048Z,95842.13
2022-10-21T10:45:34.905Z,95842.75
2022-10-21T10:48:06.057Z,95822.19
2022-10-21T10:50:47.456Z,95820.91
2022-10-21T10:56:34.057Z,95808.25
2022-10-21T10:59:04.156Z,95815.47
2022-10-21T11:01:33.318Z,95819.38
2022-10-21T11:04:13.347Z,95804.63
2022-10-21T11:06:42.490Z,95800.63
2022-10-21T11:09:09.565Z,95800.38
2022-10-21T11:11:39.116Z,95791.03
2022-10-21T11:14:11.549Z,95797.59
2022-10-21T11:17:00.697Z,95790.59
2022-10-21T11:19:31.158Z,95783.34
2022-10-21T11:22:07.067Z,95776.69
2022-10-21T11:24:53.038Z,95778.88
2022-10-21T11:27:38.446Z,95773.28
2022-10-21T11:30:19.994Z,95773.59
2022-10-21T11:33:02.899Z,95770.63
2022-10-21T11:35:46.526Z,95769.88
2022-10-21T11:38:28.656Z,95769.31
2022-10-21T11:41:03.652Z,95761.34
2022-10-21T11:43:36.639Z,95762.97
2022-10-21T11:46:06.663Z,95754.41
2022-10-21T11:48:51.265Z,95759.22
2022-10-21T11:51:34.375Z,95749.06
2022-10-21T11:54:08.644Z,95746.13
2022-10-21T11:56:43.245Z,95739.38
2022-10-21T11:59:28.994Z,95738.13
2022-10-21T12:02:14.361Z,95731.47
2022-10-21T12:04:47.319Z,95721.53
2022-10-21T12:07:24.041Z,95715.13
2022-10-21T12:09:55.339Z,95715.13
2022-10-21T12:12:42.690Z,95708.97
2022-10-21T12:15:17.691Z,95704.97
2022-10-21T12:17:45.634Z,95704.69
2022-10-21T12:20:22.805Z,95701.50
2022-10-21T12:22:58.502Z,95700.19
2022-10-21T12:25:44.213Z,95701.00
2022-10-21T12:28:18.833Z,95701.31
2022-10-21T12:31:00.917Z,95698.38
2022-10-21T12:33:44.564Z,95703.22
2022-10-21T12:36:18.041Z,95694.09
2022-10-21T12:38:44.876Z,95699.53
2022-10-21T12:41:24.046Z,95699.56
2022-10-21T12:43:56.963Z,95707.09
2022-10-21T12:46:25.299Z,95695.88
2022-10-21T12:48:52.567Z,95691.59
2022-10-21T12:51:32.692Z,95693.78
2022-10-21T12:53:59.521Z,95694.88
2022-10-21T12:56:35.420Z,95690.56
2022-10-21T12:59:05.207Z,95689.50
2022-10-21T13:01:39.052Z,95687.13
2022-10-21T13:04:25.845Z,95685.25
2022-10-21T13:06:56.863Z,95687.69
2022-10-21T13:09:35.917Z,95684.75
2022-10-21T13:12:09.114Z,95676.50
2022-10-21T13:14:42.267Z,95685.63
2022-10-21T13:17:21.423Z,95686.44
2022-10-21T13:19:48.301Z,95684.28
2022-10-21T13:22:20.987Z,95681.88
2022-10-21T13:24:48.903Z,95678.91
2022-10-21T13:27:30.114Z,95681.34
2022-10-21T13:29:58.459Z,95674.63
2022-10-21T13:32:29.642Z,95680.81
2022-10-21T13:35:19.244Z,95671.38
2022-10-21T13:37:55.345Z,95678.97
2022-10-21T13:40:30.406Z,95675.22
2022-10-21T13:42:59.759Z,95683.81
2022-10-21T13:45:31.746Z,95680.59
2022-10-21T13:48:15.768Z,95683.28
2022-10-21T13:50:43.815Z,95680.34
2022-10-21T13:53:22.382Z,95679.25
2022-10-21T13:56:03.031Z,95680.06
2022-10-21T13:58:31.711Z,95676.03
2022-10-21T14:01:06.865Z,95674.44
2022-10-21T14:03:34.667Z,95682.22
2022-10-21T14:06:02.212Z,95682.50
2022-10-21T14:08:37.867Z,95679.78
2022-10-21T14:11:08.718Z,95683.28
2022-10-21T14:13:36.934Z,95678.19
2022-10-21T14:16:04.939Z,95678.94
2022-10-21T14:18:37.090Z,95680.88
2022-10-21T14:21:04.853Z,95674.66
2022-10-21T14:23:33.896Z,95677.63
2022-10-21T14:26:05.608Z,95677.88
2022-10-21T14:28:33.200Z,95672.44
2022-10-21T14:31:01.622Z,95665.44
2022-10-21T14:33:29.093Z,95666.53
2022-10-21T14:36:08.380Z,95676.50
2022-10-21T14:38:59.122Z,95671.38
2022-10-21T14:41:36.425Z,95666.22
2022-10-21T14:44:14.500Z,95664.59
2022-10-21T14:46:43.161Z,95665.09
2022-10-21T14:49:20.338Z,95673.44
2022-10-21T14:51:47.583Z,95670.44
2022-10-21T14:54:25.137Z,95673.13
2022-10-21T14:56:52.398Z,95675.56
2022-10-21T14:59:22.439Z,95683.88
2022-10-21T15:01:49.628Z,95681.69
2022-10-21T15:04:36.694Z,95677.63
2022-10-21T15:07:03.915Z,95678.44
2022-10-21T15:09:30.653Z,95682.69
2022-10-21T15:12:16.209Z,95670.28
2022-10-21T15:14:42.952Z,95666.50
2022-10-21T15:17:10.510Z,95670.75
2022-10-21T15:19:37.466Z,95672.59
2022-10-21T15:22:05.222Z,95676.88
2022-10-21T15:24:51.531Z,95676.81
2022-10-21T15:27:24.481Z,95678.63
2022-10-21T15:29:51.416Z,95682.38
2022-10-21T15:32:22.205Z,95676.94
2022-10-21T15:34:52.258Z,95674.47
2022-10-21T15:37:19.289Z,95679.78
2022-10-21T15:39:46.372Z,95677.03
2022-10-21T15:42:14.837Z,95670.81
2022-10-21T15:44:46.854Z,95673.69
2022-10-21T15:47:13.709Z,95681.97
2022-10-21T15:49:43.334Z,95684.00
2022-10-21T15:52:10.621Z,95690.06
2022-10-21T15:54:37.435Z,95698.06
2022-10-21T15:57:13.240Z,95694.28
2022-10-21T15:59:40.139Z,95693.63
2022-10-21T16:02:14.005Z,95703.50
2022-10-21T16:04:43.952Z,95704.25
2022-10-21T16:07:21.494Z,95704.41
2022-10-21T16:09:48.489Z,95709.41
2022-10-21T16:12:16.828Z,95705.06
2022-10-21T16:14:43.658Z,95713.03
2022-10-21T16:17:12.715Z,95712.13
2022-10-21T16:19:40.608Z,95711.50
2022-10-21T16:22:13.273Z,95726.13
2022-10-21T16:24:40.126Z,95724.19
2022-10-21T16:27:10.090Z,95722.72
2022-10-21T16:29:37.222Z,95731.53
2022-10-21T16:32:04.053Z,95728.75
2022-10-21T16:34:30.898Z,95731.34
2022-10-21T16:36:57.715Z,95730.00
2022-10-21T16:39:25.558Z,95730.94
2022-10-21T16:41:52.644Z,95734.34
2022-10-21T16:44:20.669Z,95731.06
2022-10-21T16:46:55.042Z,95741.47
2022-10-21T16:49:25.803Z,95736.13
2022-10-21T16:51:53.450Z,95732.53
2022-10-21T16:54:21.310Z,95734.06
2022-10-21T16:56:48.163Z,95734.56
2022-10-21T16:59:14.878Z,95739.94
2022-10-21T17:01:41.711Z,95747.41
2022-10-21T17:04:08.636Z,95742.28
2022-10-21T17:06:35.417Z,95740.66
2022-10-21T17:09:02.534Z,95751.59
2022-10-21T17:11:33.613Z,95735.75
2022-10-21T17:14:01.202Z,95748.56
2022-10-21T17:16:28.207Z,95750.44
2022-10-21T17:18:54.990Z,95757.13
2022-10-21T17:21:23.610Z,95752.25
2022-10-21T17:23:51.032Z,95761.31
2022-10-21T17:26:18.295Z,95762.38
2022-10-21T17:28:45.588Z,95773.31
2022-10-21T17:31:16.406Z,95768.19
2022-10-21T17:33:43.338Z,95764.72
2022-10-21T17:36:10.147Z,95774.03
2022-10-21T17:38:36.979Z,95764.53
2022-10-21T17:41:03.861Z,95766.88
2022-10-21T17:43:30.590Z,95765.41
2022-10-21T17:45:57.787Z,95768.06
2022-10-21T17:48:25.366Z,95769.59
2022-10-21T17:50:56.026Z,95773.56
2022-10-21T17:53:23.084Z,95784.19
2022-10-21T17:55:59.920Z,95783.00
2022-10-21T17:58:28.175Z,95779.28
2022-10-21T18:00:57.841Z,95781.63
2022-10-21T18:03:28.395Z,95789.00
2022-10-21T18:05:55.706Z,95799.34
2022-10-21T18:08:23.061Z,95793.19
2022-10-21T18:10:59.910Z,95803.53
2022-10-21T18:13:27.678Z,95797.59
2022-10-21T18:15:55.179Z,95805.03
2022-10-21T18:18:22.605Z,95803.09
2022-10-21T18:20:49.489Z,95799.81
2022-10-21T18:23:16.290Z,95802.16
2022-10-21T18:25:43.062Z,95806.91
2022-10-21T18:28:09.981Z,95803.09
2022-10-21T18:30:41.705Z,95814.03
2022-10-21T18:33:08.555Z,95822.53
2022-10-21T18:35:35.523Z,95820.53
2022-10-21T18:38:02.250Z,95817.88
2022-10-21T18:40:29.294Z,95825.56
2022-10-21T18:42:56.170Z,95820.91
2022-10-21T18:45:22.913Z,95825.44
2022-10-21T18:47:51.576Z,95820.53
2022-10-21T18:50:18.387Z,95828.78
2022-10-21T18:52:45.164Z,95832.28
2022-10-21T18:55:12.043Z,95832.97
2022-10-21T18:57:39.133Z,95836.69
2022-10-21T19:00:07.918Z,95844.56
2022-10-21T19:02:35.001Z,95843.19
2022-10-21T19:05:02.438Z,95842.38
2022-10-21T19:07:29.846Z,95839.34
2022-10-21T19:09:56.562Z,95843.31
2022-10-21T19:12:23.898Z,95841.66
2022-10-21T19:14:50.932Z,95842.34
2022-10-21T19:17:19.076Z,95841.53
2022-10-21T19:19:45.839Z,95843.63
2022-10-21T19:22:14.717Z,95838.75
2022-10-21T19:24:41.662Z,95844.88
2022-10-21T19:27:08.727Z,95844.09
2022-10-21T19:29:35.803Z,95847.00
2022-10-21T19:32:02.499Z,95847.47
2022-10-21T19:34:29.322Z,95850.13
2022-10-21T19:36:56.183Z,95846.63
2022-10-21T19:39:22.939Z,95841.53
2022-10-21T19:41:49.706Z,95850.34
2022-10-21T19:44:16.524Z,95843.38
2022-10-21T19:46:44.648Z,95854.28
2022-10-21T19:49:12.451Z,95854.97
2022-10-21T19:51:39.389Z,95870.22
2022-10-21T19:54:06.919Z,95868.81
2022-10-21T19:56:34.675Z,95868.44
2022-10-21T19:59:05.095Z,95855.75
2022-10-21T20:01:32.766Z,95861.00
2022-10-21T20:04:00.440Z,95871.69
2022-10-21T20:06:32.071Z,95864.78
2022-10-21T20:09:00.681Z,95865.72
2022-10-21T20:11:27.798Z,95863.94
2022-10-21T20:13:55.042Z,95859.81
2022-10-21T20:16:22.077Z,95872.72
2022-10-21T20:18:49.335Z,95864.78
2022-10-21T20:21:16.697Z,95865.47
2022-10-21T20:23:43.477Z,95871.63
2022-10-21T20:26:10.215Z,95871.63
2022-10-21T20:28:37.373Z,95876.38
2022-10-21T20:31:08.684Z,95873.69
2022-10-21T20:33:36.855Z,95879.03
2022-10-21T20:36:04.871Z,95868.38
2022-10-21T20:38:32.242Z,95864.88
2022-10-21T20:41:02.555Z,95859.97
2022-10-21T20:43:30.102Z,95865.75
2022-10-21T20:45:59.844Z,95870.59
2022-10-21T20:48:26.974Z,95865.69
2022-10-21T20:51:08.079Z,95859.09
2022-10-21T20:53:35.826Z,95856.88
2022-10-21T20:56:03.779Z,95865.09
2022-10-21T20:58:33.364Z,95868.00
2022-10-21T21:01:05.926Z,95858.13
2022-10-21T21:03:32.932Z,95854.09
2022-10-21T21:06:02.961Z,95857.78
2022-10-21T21:08:29.759Z,95857.19
2022-10-21T21:11:00.707Z,95857.19
2022-10-21T21:13:27.466Z,95862.97
2022-10-21T21:16:05.102Z,95840.38
2022-10-21T21:18:32.028Z,95854.00
2022-10-21T21:23:30.026Z,95858.16
2022-10-21T21:26:01.711Z,95855.72
2022-10-21T21:28:31.568Z,95856.97
2022-10-21T21:31:01.164Z,95857.19
2022-10-21T21:33:27.956Z,95862.31
2022-10-21T21:35:56.260Z,95867.03
2022-10-21T21:38:24.252Z,95870.41
2022-10-21T21:40:51.076Z,95872.69
2022-10-21T21:43:18.095Z,95872.09
2022-10-21T21:45:45.475Z,95866.19
2022-10-21T21:48:12.703Z,95866.19
2022-10-21T21:50:39.835Z,95877.44
2022-10-21T21:53:07.410Z,95871.28
2022-10-21T21:55:34.350Z,95876.50
2022-10-21T21:58:01.255Z,95865.81
2022-10-21T22:00:28.392Z,95868.28
2022-10-21T22:02:55.204Z,95874.03
2022-10-21T22:05:26.148Z,95871.59
2022-10-21T22:07:54.123Z,95875.06
2022-10-21T22:10:21.071Z,95870.19
2022-10-21T22:12:47.783Z,95867.28
2022-10-21T22:15:29.675Z,95877.56
2022-10-21T22:18:01.620Z,95874.09
2022-10-21T22:20:28.515Z,95875.16
2022-10-21T22:22:55.374Z,95867.16
2022-10-21T22:25:22.098Z,95866.56
2022-10-21T22:27:48.907Z,95873.53
2022-10-21T22:30:16.086Z,95867.59
2022-10-21T22:32:43.042Z,95860.84
2022-10-21T22:35:09.906Z,95853.06
2022-10-21T22:37:39.273Z,95849.78
2022-10-21T22:40:07.090Z,95843.03
2022-10-21T22:42:33.868Z,95844.75
2022-10-21T22:45:00.691Z,95847.41
2022-10-21T22:47:27.600Z,95842.09
2022-10-21T22:49:54.457Z,95831.84
2022-10-21T22:52:21.349Z,95847.25
2022-10-21T22:54:49.828Z,95834.75
2022-10-21T22:57:17.190Z,95838.03
2022-10-21T22:59:48.291Z,95840.97
2022-10-21T23:02:17.908Z,95845.91
2022-10-21T23:04:44.675Z,95842.84
2022-10-21T23:07:11.418Z,95843.66
2022-10-21T23:09:38.346Z,95842.25
2022-10-21T23:12:05.225Z,95844.69
2022-10-21T23:14:31.970Z,95847.97
2022-10-21T23:16:58.768Z,95853.13
2022-10-21T23:19:25.734Z,95855.44
2022-10-21T23:21:52.423Z,95847.06
2022-10-21T23:24:19.367Z,95847.47
2022-10-21T23:26:46.090Z,95849.97
2022-10-21T23:29:13.074Z,95853.91
2022-10-21T23:31:39.810Z,95852.63
2022-10-21T23:34:06.731Z,95851.25
2022-10-21T23:36:34.639Z,95860.06
2022-10-21T23:39:02.066Z,95861.09
2022-10-21T23:41:28.903Z,95862.13
2022-10-21T23:43:55.886Z,95861.72
2022-10-21T23:46:22.902Z,95862.97
2022-10-21T23:48:50.163Z,95857.84
2022-10-21T23:51:17.111Z,95859.91
2022-10-21T23:53:43.874Z,95854.81
2022-10-21T23:56:10.715Z,95847.03
2022-10-21T23:58:37.461Z,95852.38
